Terminal Aerodrome Forecast
Issued by NWS Charleston, WV

Current Version | Previous Version | Text Only | Print | Product List | Glossary Off
Versions: 1 2 3 4 5 6 7 8 9 10 11 12 13 14 15 16 17 18 19 20 21

000
FTUS41 KRLX 101043 AAB
TAFPKB
TAF AMD
KPKB 101043Z 1011/1106 26009KT P6SM OVC035
     FM101500 23009G18KT P6SM BKN060
     FM102000 22009G16KT P6SM SCT090
     FM102300 22007KT P6SM BKN070=

USA.gov is the U.S. government's official web portal to all federal, state and local government web resources and services.